sensor_id;sensor_type;location;lat;lon;timestamp;pressure;altitude;pressure_sealevel;temperature;humidity
74960;BME280;63518;49.572;1.106;2023-07-09T00:01:55;99811.97;;;18.88;100.00
74960;BME280;63518;49.572;1.106;2023-07-09T00:04:22;99809.38;;;18.83;100.00
74960;BME280;63518;49.572;1.106;2023-07-09T00:06:50;99818.31;;;18.68;100.00
74960;BME280;63518;49.572;1.106;2023-07-09T00:09:20;99806.53;;;18.53;100.00
74960;BME280;63518;49.572;1.106;2023-07-09T00:11:49;99803.91;;;18.57;100.00
74960;BME280;63518;49.572;1.106;2023-07-09T00:14:16;99817.16;;;18.69;100.00
74960;BME280;63518;49.572;1.106;2023-07-09T00:16:45;99828.66;;;18.67;100.00
74960;BME280;63518;49.572;1.106;2023-07-09T00:19:21;99818.38;;;18.89;100.00
74960;BME280;63518;49.572;1.106;2023-07-09T00:21:51;99824.47;;;18.82;100.00
74960;BME280;63518;49.572;1.106;2023-07-09T00:24:21;99823.97;;;18.80;100.00
74960;BME280;63518;49.572;1.106;2023-07-09T00:26:49;99812.03;;;18.71;100.00
74960;BME280;63518;49.572;1.106;2023-07-09T00:29:17;99823.25;;;19.00;100.00
74960;BME280;63518;49.572;1.106;2023-07-09T00:31:44;99828.84;;;19.00;100.00
74960;BME280;63518;49.572;1.106;2023-07-09T00:34:13;99826.41;;;18.99;100.00
74960;BME280;63518;49.572;1.106;2023-07-09T00:36:42;99825.09;;;18.88;100.00
74960;BME280;63518;49.572;1.106;2023-07-09T00:39:17;99831.47;;;19.05;100.00
74960;BME280;63518;49.572;1.106;2023-07-09T00:41:45;99816.22;;;18.94;100.00
74960;BME280;63518;49.572;1.106;2023-07-09T00:44:24;99819.53;;;18.96;100.00
74960;BME280;63518;49.572;1.106;2023-07-09T00:49:34;99824.25;;;18.96;100.00
74960;BME280;63518;49.572;1.106;2023-07-09T00:54:58;99844.66;;;18.88;100.00
74960;BME280;63518;49.572;1.106;2023-07-09T00:57:28;99839.06;;;18.88;100.00
74960;BME280;63518;49.572;1.106;2023-07-09T01:00:02;99835.66;;;18.82;100.00
74960;BME280;63518;49.572;1.106;2023-07-09T01:02:37;99842.72;;;18.79;100.00
74960;BME280;63518;49.572;1.106;2023-07-09T01:05:05;99852.41;;;18.82;100.00
74960;BME280;63518;49.572;1.106;2023-07-09T01:07:32;99845.91;;;18.61;100.00
74960;BME280;63518;49.572;1.106;2023-07-09T01:10:01;99855.00;;;18.49;100.00
74960;BME280;63518;49.572;1.106;2023-07-09T01:12:28;99854.97;;;18.57;100.00
74960;BME280;63518;49.572;1.106;2023-07-09T01:14:57;99866.13;;;18.57;100.00
74960;BME280;63518;49.572;1.106;2023-07-09T01:17:27;99852.03;;;18.45;100.00
74960;BME280;63518;49.572;1.106;2023-07-09T01:19:56;99857.50;;;18.33;100.00
74960;BME280;63518;49.572;1.106;2023-07-09T01:22:23;99856.31;;;18.43;100.00
74960;BME280;63518;49.572;1.106;2023-07-09T01:27:28;99861.63;;;18.18;100.00
74960;BME280;63518;49.572;1.106;2023-07-09T01:29:56;99865.56;;;18.26;100.00
74960;BME280;63518;49.572;1.106;2023-07-09T01:32:24;99859.94;;;18.43;100.00
74960;BME280;63518;49.572;1.106;2023-07-09T01:34:56;99850.78;;;18.25;100.00
74960;BME280;63518;49.572;1.106;2023-07-09T01:37:26;99853.19;;;18.44;100.00
74960;BME280;63518;49.572;1.106;2023-07-09T01:39:55;99847.63;;;18.44;100.00
74960;BME280;63518;49.572;1.106;2023-07-09T01:42:24;99859.25;;;18.46;100.00
74960;BME280;63518;49.572;1.106;2023-07-09T01:44:53;99856.66;;;18.33;100.00
74960;BME280;63518;49.572;1.106;2023-07-09T01:47:22;99842.56;;;18.29;100.00
74960;BME280;63518;49.572;1.106;2023-07-09T01:49:51;99853.72;;;18.29;100.00
74960;BME280;63518;49.572;1.106;2023-07-09T01:52:27;99856.19;;;18.05;100.00
74960;BME280;63518;49.572;1.106;2023-07-09T01:54:56;99850.97;;;18.12;100.00
74960;BME280;63518;49.572;1.106;2023-07-09T01:57:28;99849.47;;;17.88;100.00
74960;BME280;63518;49.572;1.106;2023-07-09T02:00:04;99846.22;;;17.95;100.00
74960;BME280;63518;49.572;1.106;2023-07-09T02:02:32;99835.84;;;18.04;100.00
74960;BME280;63518;49.572;1.106;2023-07-09T02:05:02;99814.22;;;18.10;100.00
74960;BME280;63518;49.572;1.106;2023-07-09T02:07:28;99815.00;;;17.93;100.00
74960;BME280;63518;49.572;1.106;2023-07-09T02:09:56;99827.66;;;17.90;100.00
74960;BME280;63518;49.572;1.106;2023-07-09T02:12:23;99829.13;;;18.22;100.00
74960;BME280;63518;49.572;1.106;2023-07-09T02:14:50;99834.25;;;17.86;100.00
74960;BME280;63518;49.572;1.106;2023-07-09T02:17:18;99829.16;;;17.79;100.00
74960;BME280;63518;49.572;1.106;2023-07-09T02:19:45;99823.25;;;17.81;100.00
74960;BME280;63518;49.572;1.106;2023-07-09T02:22:12;99830.78;;;17.80;100.00
74960;BME280;63518;49.572;1.106;2023-07-09T02:24:39;99832.59;;;17.67;100.00
74960;BME280;63518;49.572;1.106;2023-07-09T02:27:08;99828.84;;;17.46;100.00
74960;BME280;63518;49.572;1.106;2023-07-09T02:29:37;99827.50;;;17.52;100.00
74960;BME280;63518;49.572;1.106;2023-07-09T02:32:05;99829.16;;;17.62;100.00
74960;BME280;63518;49.572;1.106;2023-07-09T02:34:32;99832.91;;;17.66;100.00
74960;BME280;63518;49.572;1.106;2023-07-09T02:36:59;99814.56;;;17.30;100.00
74960;BME280;63518;49.572;1.106;2023-07-09T02:39:26;99841.44;;;17.61;100.00
74960;BME280;63518;49.572;1.106;2023-07-09T02:41:53;99831.78;;;17.50;100.00
74960;BME280;63518;49.572;1.106;2023-07-09T02:44:20;99837.81;;;17.26;100.00
74960;BME280;63518;49.572;1.106;2023-07-09T02:46:47;99836.69;;;16.87;100.00
74960;BME280;63518;49.572;1.106;2023-07-09T02:49:15;99824.75;;;16.95;100.00
74960;BME280;63518;49.572;1.106;2023-07-09T02:51:42;99841.13;;;16.97;100.00
74960;BME280;63518;49.572;1.106;2023-07-09T02:54:09;99826.47;;;16.74;100.00
74960;BME280;63518;49.572;1.106;2023-07-09T02:56:36;99843.94;;;17.05;100.00
74960;BME280;63518;49.572;1.106;2023-07-09T02:59:04;99838.38;;;17.14;100.00
74960;BME280;63518;49.572;1.106;2023-07-09T03:01:32;99821.91;;;17.17;100.00
74960;BME280;63518;49.572;1.106;2023-07-09T03:04:01;99838.88;;;16.99;100.00
74960;BME280;63518;49.572;1.106;2023-07-09T03:06:31;99857.91;;;16.74;100.00
74960;BME280;63518;49.572;1.106;2023-07-09T03:09:03;99870.22;;;16.82;100.00
74960;BME280;63518;49.572;1.106;2023-07-09T03:11:33;99879.19;;;16.39;100.00
74960;BME280;63518;49.572;1.106;2023-07-09T03:14:01;99876.69;;;16.29;100.00
74960;BME280;63518;49.572;1.106;2023-07-09T03:16:29;99877.56;;;16.38;100.00
74960;BME280;63518;49.572;1.106;2023-07-09T03:18:57;99865.16;;;16.44;100.00
74960;BME280;63518;49.572;1.106;2023-07-09T03:21:25;99855.41;;;16.64;100.00
74960;BME280;63518;49.572;1.106;2023-07-09T03:23:56;99841.06;;;16.79;100.00
74960;BME280;63518;49.572;1.106;2023-07-09T03:26:24;99846.25;;;16.63;100.00
74960;BME280;63518;49.572;1.106;2023-07-09T03:28:52;99852.53;;;16.78;100.00
74960;BME280;63518;49.572;1.106;2023-07-09T03:31:20;99847.13;;;16.81;100.00
74960;BME280;63518;49.572;1.106;2023-07-09T03:33:48;99856.91;;;16.17;100.00
74960;BME280;63518;49.572;1.106;2023-07-09T03:36:15;99861.31;;;16.31;100.00
74960;BME280;63518;49.572;1.106;2023-07-09T03:38:42;99857.25;;;16.38;100.00
74960;BME280;63518;49.572;1.106;2023-07-09T03:41:09;99856.69;;;16.58;100.00
74960;BME280;63518;49.572;1.106;2023-07-09T03:43:35;99855.75;;;16.62;100.00
74960;BME280;63518;49.572;1.106;2023-07-09T03:46:02;99848.06;;;16.59;100.00
74960;BME280;63518;49.572;1.106;2023-07-09T03:48:32;99849.13;;;16.50;100.00
74960;BME280;63518;49.572;1.106;2023-07-09T03:50:58;99847.78;;;16.39;100.00
74960;BME280;63518;49.572;1.106;2023-07-09T03:53:25;99862.97;;;16.19;100.00
74960;BME280;63518;49.572;1.106;2023-07-09T03:55:54;99857.47;;;16.50;100.00
74960;BME280;63518;49.572;1.106;2023-07-09T03:58:23;99826.41;;;16.56;100.00
74960;BME280;63518;49.572;1.106;2023-07-09T04:00:50;99829.44;;;16.69;100.00
74960;BME280;63518;49.572;1.106;2023-07-09T04:03:17;99826.91;;;16.58;100.00
74960;BME280;63518;49.572;1.106;2023-07-09T04:05:43;99840.41;;;16.43;100.00
74960;BME280;63518;49.572;1.106;2023-07-09T04:08:10;99854.41;;;16.51;100.00
74960;BME280;63518;49.572;1.106;2023-07-09T04:10:37;99885.13;;;16.46;100.00
74960;BME280;63518;49.572;1.106;2023-07-09T04:13:04;99868.44;;;16.46;100.00
74960;BME280;63518;49.572;1.106;2023-07-09T04:15:32;99887.47;;;16.53;100.00
74960;BME280;63518;49.572;1.106;2023-07-09T04:17:59;99882.47;;;16.72;100.00
74960;BME280;63518;49.572;1.106;2023-07-09T04:20:26;99879.47;;;16.60;100.00
74960;BME280;63518;49.572;1.106;2023-07-09T04:22:54;99870.31;;;16.59;100.00
74960;BME280;63518;49.572;1.106;2023-07-09T04:25:21;99874.50;;;16.88;100.00
74960;BME280;63518;49.572;1.106;2023-07-09T04:27:48;99881.47;;;16.37;100.00
74960;BME280;63518;49.572;1.106;2023-07-09T04:30:17;99854.47;;;15.93;100.00
74960;BME280;63518;49.572;1.106;2023-07-09T04:32:45;99861.22;;;16.00;100.00
74960;BME280;63518;49.572;1.106;2023-07-09T04:35:13;99871.44;;;16.27;100.00
74960;BME280;63518;49.572;1.106;2023-07-09T04:37:41;99862.94;;;16.32;100.00
74960;BME280;63518;49.572;1.106;2023-07-09T04:40:09;99855.00;;;16.48;100.00
74960;BME280;63518;49.572;1.106;2023-07-09T04:42:39;99866.91;;;16.71;100.00
74960;BME280;63518;49.572;1.106;2023-07-09T04:45:09;99867.63;;;16.23;100.00
74960;BME280;63518;49.572;1.106;2023-07-09T04:47:36;99867.72;;;16.18;100.00
74960;BME280;63518;49.572;1.106;2023-07-09T04:50:05;99858.03;;;16.29;100.00
74960;BME280;63518;49.572;1.106;2023-07-09T04:52:32;99873.78;;;16.43;100.00
74960;BME280;63518;49.572;1.106;2023-07-09T04:54:59;99881.72;;;16.04;100.00
74960;BME280;63518;49.572;1.106;2023-07-09T04:57:27;99879.69;;;16.41;100.00
74960;BME280;63518;49.572;1.106;2023-07-09T04:59:54;99888.31;;;16.31;100.00
74960;BME280;63518;49.572;1.106;2023-07-09T05:02:22;99876.22;;;16.35;100.00
74960;BME280;63518;49.572;1.106;2023-07-09T05:04:49;99877.06;;;16.36;100.00
74960;BME280;63518;49.572;1.106;2023-07-09T05:07:16;99872.38;;;16.23;100.00
74960;BME280;63518;49.572;1.106;2023-07-09T05:09:42;99882.47;;;16.41;100.00
74960;BME280;63518;49.572;1.106;2023-07-09T05:12:09;99867.97;;;16.22;100.00
74960;BME280;63518;49.572;1.106;2023-07-09T05:14:36;99887.25;;;16.49;100.00
74960;BME280;63518;49.572;1.106;2023-07-09T05:17:04;99878.41;;;16.47;100.00
74960;BME280;63518;49.572;1.106;2023-07-09T05:19:31;99893.78;;;16.45;100.00
74960;BME280;63518;49.572;1.106;2023-07-09T05:21:59;99899.16;;;16.41;100.00
74960;BME280;63518;49.572;1.106;2023-07-09T05:24:26;99903.34;;;16.52;100.00
74960;BME280;63518;49.572;1.106;2023-07-09T05:26:55;99899.31;;;16.67;100.00
74960;BME280;63518;49.572;1.106;2023-07-09T05:29:24;99901.69;;;16.51;100.00
74960;BME280;63518;49.572;1.106;2023-07-09T05:31:51;99899.25;;;16.58;100.00
74960;BME280;63518;49.572;1.106;2023-07-09T05:34:18;99901.06;;;16.54;100.00
74960;BME280;63518;49.572;1.106;2023-07-09T05:36:45;99904.34;;;16.96;100.00
74960;BME280;63518;49.572;1.106;2023-07-09T05:39:11;99895.19;;;16.64;100.00
74960;BME280;63518;49.572;1.106;2023-07-09T05:41:38;99906.94;;;16.84;100.00
74960;BME280;63518;49.572;1.106;2023-07-09T05:44:06;99905.97;;;16.88;100.00
74960;BME280;63518;49.572;1.106;2023-07-09T05:46:36;99874.28;;;16.67;100.00
74960;BME280;63518;49.572;1.106;2023-07-09T05:49:05;99891.19;;;17.19;100.00
74960;BME280;63518;49.572;1.106;2023-07-09T05:51:32;99892.06;;;17.37;100.00
74960;BME280;63518;49.572;1.106;2023-07-09T05:53:59;99884.41;;;17.03;100.00
74960;BME280;63518;49.572;1.106;2023-07-09T05:56:26;99868.84;;;17.02;100.00
74960;BME280;63518;49.572;1.106;2023-07-09T05:58:53;99870.91;;;17.36;100.00
74960;BME280;63518;49.572;1.106;2023-07-09T06:01:20;99863.22;;;17.41;100.00
74960;BME280;63518;49.572;1.106;2023-07-09T06:03:48;99877.97;;;17.42;100.00
74960;BME280;63518;49.572;1.106;2023-07-09T06:06:15;99875.44;;;17.14;100.00
74960;BME280;63518;49.572;1.106;2023-07-09T06:08:43;99883.75;;;17.63;100.00
74960;BME280;63518;49.572;1.106;2023-07-09T06:11:10;99892.28;;;17.58;100.00
74960;BME280;63518;49.572;1.106;2023-07-09T06:13:37;99886.56;;;17.89;100.00
74960;BME280;63518;49.572;1.106;2023-07-09T06:16:04;99905.56;;;17.69;100.00
74960;BME280;63518;49.572;1.106;2023-07-09T06:18:31;99922.31;;;17.78;100.00
74960;BME280;63518;49.572;1.106;2023-07-09T06:20:59;99917.09;;;18.20;100.00
74960;BME280;63518;49.572;1.106;2023-07-09T06:23:27;99911.00;;;18.44;100.00
74960;BME280;63518;49.572;1.106;2023-07-09T06:25:54;99905.38;;;18.61;100.00
74960;BME280;63518;49.572;1.106;2023-07-09T06:28:24;99911.34;;;18.08;100.00
74960;BME280;63518;49.572;1.106;2023-07-09T06:30:51;99918.06;;;18.41;100.00
74960;BME280;63518;49.572;1.106;2023-07-09T06:33:19;99904.53;;;18.61;100.00
74960;BME280;63518;49.572;1.106;2023-07-09T06:35:54;99883.94;;;18.27;100.00
74960;BME280;63518;49.572;1.106;2023-07-09T06:38:22;99907.50;;;18.55;100.00
74960;BME280;63518;49.572;1.106;2023-07-09T06:40:49;99900.09;;;18.68;100.00
74960;BME280;63518;49.572;1.106;2023-07-09T06:43:17;99933.41;;;18.82;100.00
74960;BME280;63518;49.572;1.106;2023-07-09T06:45:58;99936.41;;;19.53;100.00
74960;BME280;63518;49.572;1.106;2023-07-09T06:48:27;99935.25;;;19.54;100.00
74960;BME280;63518;49.572;1.106;2023-07-09T06:50:56;99927.25;;;19.06;100.00
74960;BME280;63518;49.572;1.106;2023-07-09T06:53:24;99934.44;;;19.16;100.00
74960;BME280;63518;49.572;1.106;2023-07-09T06:55:52;99950.59;;;18.93;100.00
74960;BME280;63518;49.572;1.106;2023-07-09T06:58:22;99930.03;;;19.15;100.00
74960;BME280;63518;49.572;1.106;2023-07-09T07:00:52;99936.22;;;19.29;100.00
74960;BME280;63518;49.572;1.106;2023-07-09T07:03:19;99963.91;;;19.13;100.00
74960;BME280;63518;49.572;1.106;2023-07-09T07:05:52;99966.69;;;20.64;100.00
74960;BME280;63518;49.572;1.106;2023-07-09T07:08:22;99964.50;;;20.28;100.00
74960;BME280;63518;49.572;1.106;2023-07-09T07:10:59;99981.88;;;20.01;100.00
74960;BME280;63518;49.572;1.106;2023-07-09T07:13:38;99977.91;;;20.22;100.00
74960;BME280;63518;49.572;1.106;2023-07-09T07:16:08;99968.75;;;19.63;100.00
74960;BME280;63518;49.572;1.106;2023-07-09T07:18:36;99999.94;;;20.03;100.00
74960;BME280;63518;49.572;1.106;2023-07-09T07:21:03;100010.28;;;20.32;100.00
74960;BME280;63518;49.572;1.106;2023-07-09T07:23:30;99981.09;;;20.54;100.00
74960;BME280;63518;49.572;1.106;2023-07-09T07:25:57;100007.41;;;19.23;100.00
74960;BME280;63518;49.572;1.106;2023-07-09T07:28:24;100016.72;;;19.44;100.00
74960;BME280;63518;49.572;1.106;2023-07-09T07:31:01;100015.34;;;19.12;100.00
74960;BME280;63518;49.572;1.106;2023-07-09T07:33:29;100032.84;;;19.38;100.00
74960;BME280;63518;49.572;1.106;2023-07-09T07:35:56;100043.56;;;19.66;100.00
74960;BME280;63518;49.572;1.106;2023-07-09T07:38:42;100027.56;;;18.73;100.00
74960;BME280;63518;49.572;1.106;2023-07-09T07:41:09;100009.00;;;18.51;100.00
74960;BME280;63518;49.572;1.106;2023-07-09T07:43:37;100015.38;;;18.69;100.00
74960;BME280;63518;49.572;1.106;2023-07-09T07:46:05;100018.13;;;19.12;100.00
74960;BME280;63518;49.572;1.106;2023-07-09T07:48:32;100030.47;;;19.02;100.00
74960;BME280;63518;49.572;1.106;2023-07-09T07:51:01;100037.44;;;19.34;100.00
74960;BME280;63518;49.572;1.106;2023-07-09T07:53:29;100047.03;;;19.63;100.00
74960;BME280;63518;49.572;1.106;2023-07-09T07:55:57;100043.81;;;19.52;100.00
74960;BME280;63518;49.572;1.106;2023-07-09T07:58:25;100054.97;;;19.05;100.00
74960;BME280;63518;49.572;1.106;2023-07-09T08:00:56;100049.53;;;18.92;100.00
74960;BME280;63518;49.572;1.106;2023-07-09T08:03:24;100054.81;;;18.76;100.00
74960;BME280;63518;49.572;1.106;2023-07-09T08:05:51;100060.34;;;19.28;100.00
74960;BME280;63518;49.572;1.106;2023-07-09T08:08:18;100081.38;;;19.25;100.00
74960;BME280;63518;49.572;1.106;2023-07-09T08:10:45;100095.47;;;19.46;100.00
74960;BME280;63518;49.572;1.106;2023-07-09T08:13:12;100086.50;;;19.15;100.00
74960;BME280;63518;49.572;1.106;2023-07-09T08:15:40;100087.47;;;19.10;100.00
74960;BME280;63518;49.572;1.106;2023-07-09T08:18:07;100092.59;;;18.82;100.00
74960;BME280;63518;49.572;1.106;2023-07-09T08:20:33;100109.00;;;18.83;100.00
74960;BME280;63518;49.572;1.106;2023-07-09T08:23:00;100105.06;;;19.02;100.00
74960;BME280;63518;49.572;1.106;2023-07-09T08:25:28;100101.94;;;19.03;100.00
74960;BME280;63518;49.572;1.106;2023-07-09T08:27:55;100093.63;;;19.50;100.00
74960;BME280;63518;49.572;1.106;2023-07-09T08:30:21;100063.78;;;19.72;100.00
74960;BME280;63518;49.572;1.106;2023-07-09T08:32:48;100073.25;;;19.50;100.00
74960;BME280;63518;49.572;1.106;2023-07-09T08:35:15;100110.28;;;19.93;100.00
74960;BME280;63518;49.572;1.106;2023-07-09T08:37:45;100114.13;;;19.07;100.00
74960;BME280;63518;49.572;1.106;2023-07-09T08:40:16;100114.66;;;20.03;100.00
74960;BME280;63518;49.572;1.106;2023-07-09T08:42:45;100106.06;;;19.70;100.00
74960;BME280;63518;49.572;1.106;2023-07-09T08:50:51;100068.25;;;19.17;100.00
74960;BME280;63518;49.572;1.106;2023-07-09T08:53:33;100025.19;;;19.09;100.00
74960;BME280;63518;49.572;1.106;2023-07-09T08:56:03;100027.88;;;19.82;100.00
74960;BME280;63518;49.572;1.106;2023-07-09T08:58:31;100006.44;;;19.57;100.00
74960;BME280;63518;49.572;1.106;2023-07-09T09:01:04;99996.81;;;20.26;100.00
74960;BME280;63518;49.572;1.106;2023-07-09T09:03:51;99995.50;;;20.02;100.00
74960;BME280;63518;49.572;1.106;2023-07-09T09:06:31;100001.59;;;20.25;100.00
74960;BME280;63518;49.572;1.106;2023-07-09T09:09:36;100000.72;;;20.33;100.00
74960;BME280;63518;49.572;1.106;2023-07-09T09:12:03;99997.56;;;20.56;100.00
74960;BME280;63518;49.572;1.106;2023-07-09T09:14:39;99972.97;;;20.61;99.44
74960;BME280;63518;49.572;1.106;2023-07-09T09:17:13;99983.06;;;20.74;98.84
74960;BME280;63518;49.572;1.106;2023-07-09T09:19:55;99996.47;;;21.14;97.14
74960;BME280;63518;49.572;1.106;2023-07-09T09:22:33;99995.97;;;21.57;96.21
74960;BME280;63518;49.572;1.106;2023-07-09T09:25:24;100005.44;;;21.07;96.89
74960;BME280;63518;49.572;1.106;2023-07-09T09:27:54;99976.09;;;20.81;94.63
74960;BME280;63518;49.572;1.106;2023-07-09T09:30:24;99971.38;;;20.51;94.94
74960;BME280;63518;49.572;1.106;2023-07-09T09:33:02;99948.41;;;21.37;93.62
74960;BME280;63518;49.572;1.106;2023-07-09T09:35:42;99957.97;;;21.48;93.22
74960;BME280;63518;49.572;1.106;2023-07-09T09:38:17;99968.56;;;21.30;95.48
74960;BME280;63518;49.572;1.106;2023-07-09T09:40:46;99962.88;;;20.81;93.04
74960;BME280;63518;49.572;1.106;2023-07-09T09:43:22;99957.25;;;21.26;92.60
74960;BME280;63518;49.572;1.106;2023-07-09T09:45:51;99937.88;;;20.43;89.41
74960;BME280;63518;49.572;1.106;2023-07-09T09:48:32;99908.84;;;20.81;92.28
74960;BME280;63518;49.572;1.106;2023-07-09T09:51:04;99943.34;;;19.98;93.81
74960;BME280;63518;49.572;1.106;2023-07-09T09:53:40;99981.25;;;21.73;92.44
74960;BME280;63518;49.572;1.106;2023-07-09T09:56:11;99983.53;;;21.95;89.84
74960;BME280;63518;49.572;1.106;2023-07-09T09:58:40;99930.53;;;22.06;87.53
74960;BME280;63518;49.572;1.106;2023-07-09T10:01:15;99955.34;;;22.72;86.05
74960;BME280;63518;49.572;1.106;2023-07-09T10:03:42;99998.19;;;23.57;85.33
74960;BME280;63518;49.572;1.106;2023-07-09T10:06:28;100026.50;;;23.32;84.16
74960;BME280;63518;49.572;1.106;2023-07-09T10:17:27;100012.19;;;22.81;80.90
74960;BME280;63518;49.572;1.106;2023-07-09T10:20:11;99988.75;;;23.65;85.80
74960;BME280;63518;49.572;1.106;2023-07-09T10:22:59;100011.84;;;22.55;80.57
74960;BME280;63518;49.572;1.106;2023-07-09T10:25:38;100060.94;;;23.57;81.66
74960;BME280;63518;49.572;1.106;2023-07-09T10:28:55;100061.97;;;22.81;81.79
74960;BME280;63518;49.572;1.106;2023-07-09T10:37:21;100073.03;;;21.97;79.35
74960;BME280;63518;49.572;1.106;2023-07-09T10:39:57;100083.69;;;23.68;77.14
74960;BME280;63518;49.572;1.106;2023-07-09T10:42:29;100095.25;;;23.94;74.85
74960;BME280;63518;49.572;1.106;2023-07-09T10:45:09;100089.44;;;23.55;75.78
74960;BME280;63518;49.572;1.106;2023-07-09T10:47:44;100091.75;;;24.32;74.51
74960;BME280;63518;49.572;1.106;2023-07-09T10:50:27;100094.72;;;24.39;70.56
74960;BME280;63518;49.572;1.106;2023-07-09T10:53:00;100084.84;;;24.14;74.09
74960;BME280;63518;49.572;1.106;2023-07-09T10:58:29;100088.06;;;27.26;70.48
74960;BME280;63518;49.572;1.106;2023-07-09T11:00:59;100083.66;;;24.85;71.62
74960;BME280;63518;49.572;1.106;2023-07-09T11:03:40;100095.06;;;24.03;73.46
74960;BME280;63518;49.572;1.106;2023-07-09T11:06:16;100084.03;;;23.50;73.10
74960;BME280;63518;49.572;1.106;2023-07-09T11:08:46;100085.34;;;24.51;67.32
74960;BME280;63518;49.572;1.106;2023-07-09T11:11:24;100072.72;;;23.19;73.98
74960;BME280;63518;49.572;1.106;2023-07-09T11:13:56;100077.78;;;24.04;73.84
74960;BME280;63518;49.572;1.106;2023-07-09T11:16:33;100075.50;;;23.31;77.14
74960;BME280;63518;49.572;1.106;2023-07-09T11:19:04;100071.06;;;23.02;74.69
74960;BME280;63518;49.572;1.106;2023-07-09T11:21:44;100063.34;;;24.57;77.60
74960;BME280;63518;49.572;1.106;2023-07-09T11:24:30;100074.31;;;25.85;74.78
74960;BME280;63518;49.572;1.106;2023-07-09T11:26:57;100076.63;;;23.30;73.98
74960;BME280;63518;49.572;1.106;2023-07-09T11:29:26;100069.78;;;22.99;74.69
74960;BME280;63518;49.572;1.106;2023-07-09T11:32:08;100086.81;;;23.63;76.67
74960;BME280;63518;49.572;1.106;2023-07-09T11:34:45;100090.16;;;23.84;73.50
74960;BME280;63518;49.572;1.106;2023-07-09T11:37:14;100093.16;;;23.91;74.91
74960;BME280;63518;49.572;1.106;2023-07-09T11:39:47;100087.06;;;22.86;76.22
74960;BME280;63518;49.572;1.106;2023-07-09T11:42:31;100086.41;;;23.48;79.57
74960;BME280;63518;49.572;1.106;2023-07-09T11:47:36;100068.53;;;24.04;72.66
74960;BME280;63518;49.572;1.106;2023-07-09T11:50:13;100062.06;;;25.32;75.51
74960;BME280;63518;49.572;1.106;2023-07-09T11:52:54;100062.69;;;24.28;76.78
74960;BME280;63518;49.572;1.106;2023-07-09T11:55:43;100065.59;;;24.16;70.90
74960;BME280;63518;49.572;1.106;2023-07-09T11:58:14;100065.28;;;23.11;76.54
74960;BME280;63518;49.572;1.106;2023-07-09T12:00:45;100072.38;;;24.85;70.27
74960;BME280;63518;49.572;1.106;2023-07-09T12:03:20;100046.72;;;24.52;68.36
74960;BME280;63518;49.572;1.106;2023-07-09T12:05:50;100056.88;;;23.42;74.03
74960;BME280;63518;49.572;1.106;2023-07-09T12:08:23;100071.53;;;25.01;74.33
74960;BME280;63518;49.572;1.106;2023-07-09T12:10:53;100071.28;;;23.25;73.16
74960;BME280;63518;49.572;1.106;2023-07-09T12:13:20;100076.63;;;23.90;70.95
74960;BME280;63518;49.572;1.106;2023-07-09T12:15:48;100072.84;;;25.49;73.46
74960;BME280;63518;49.572;1.106;2023-07-09T12:18:15;100053.91;;;24.49;68.30
74960;BME280;63518;49.572;1.106;2023-07-09T12:20:52;100058.72;;;23.82;72.52
74960;BME280;63518;49.572;1.106;2023-07-09T12:23:24;100061.75;;;25.37;67.47
74960;BME280;63518;49.572;1.106;2023-07-09T12:25:52;100056.91;;;24.41;68.32
74960;BME280;63518;49.572;1.106;2023-07-09T12:28:21;100052.41;;;24.36;71.57
74960;BME280;63518;49.572;1.106;2023-07-09T12:30:50;100054.56;;;23.60;72.17
74960;BME280;63518;49.572;1.106;2023-07-09T12:33:19;100046.19;;;25.04;73.68
74960;BME280;63518;49.572;1.106;2023-07-09T12:35:47;100060.09;;;25.13;65.99
74960;BME280;63518;49.572;1.106;2023-07-09T12:38:20;100074.63;;;26.29;64.55
74960;BME280;63518;49.572;1.106;2023-07-09T12:40:49;100069.50;;;25.63;65.29
74960;BME280;63518;49.572;1.106;2023-07-09T12:43:25;100069.13;;;25.03;71.75
74960;BME280;63518;49.572;1.106;2023-07-09T12:45:53;100065.59;;;27.07;63.71
74960;BME280;63518;49.572;1.106;2023-07-09T12:48:24;100063.69;;;26.01;64.79
74960;BME280;63518;49.572;1.106;2023-07-09T12:50:55;100068.69;;;26.38;67.32
74960;BME280;63518;49.572;1.106;2023-07-09T12:53:24;100071.44;;;26.88;66.49
74960;BME280;63518;49.572;1.106;2023-07-09T12:56:00;100071.78;;;24.06;69.33
74960;BME280;63518;49.572;1.106;2023-07-09T12:58:30;100069.47;;;24.98;71.08
74960;BME280;63518;49.572;1.106;2023-07-09T13:01:00;100053.97;;;25.53;68.88
74960;BME280;63518;49.572;1.106;2023-07-09T13:03:34;100058.25;;;23.48;69.43
74960;BME280;63518;49.572;1.106;2023-07-09T13:06:06;100069.00;;;22.87;73.22
74960;BME280;63518;49.572;1.106;2023-07-09T13:08:42;100078.81;;;23.65;72.28
74960;BME280;63518;49.572;1.106;2023-07-09T13:11:17;100085.84;;;22.99;73.99
74960;BME280;63518;49.572;1.106;2023-07-09T13:13:59;100082.50;;;23.84;76.01
74960;BME280;63518;49.572;1.106;2023-07-09T13:16:28;100085.88;;;24.76;73.04
74960;BME280;63518;49.572;1.106;2023-07-09T13:18:55;100068.16;;;24.21;72.73
74960;BME280;63518;49.572;1.106;2023-07-09T13:21:24;100077.50;;;24.60;74.62
74960;BME280;63518;49.572;1.106;2023-07-09T13:23:53;100072.69;;;23.47;69.58
74960;BME280;63518;49.572;1.106;2023-07-09T13:26:22;100072.28;;;22.89;72.82
74960;BME280;63518;49.572;1.106;2023-07-09T13:28:48;100080.44;;;23.97;73.98
74960;BME280;63518;49.572;1.106;2023-07-09T13:31:20;100092.88;;;24.82;73.48
74960;BME280;63518;49.572;1.106;2023-07-09T13:33:54;100086.91;;;24.87;73.57
74960;BME280;63518;49.572;1.106;2023-07-09T13:36:23;100089.53;;;25.15;72.54
74960;BME280;63518;49.572;1.106;2023-07-09T13:38:50;100106.00;;;24.75;72.50
74960;BME280;63518;49.572;1.106;2023-07-09T13:41:19;100099.69;;;23.79;69.50